Hoddesdon, United Kingdom
Current Conditions -  °F | °C
As of 4:20 AM on Saturday 25 Oct 2014 (Local Time) from EGSS Reporting Station
Moderate Fog Moderate Fog  
Wind Chill: 40°   Ceiling: Unl
Heat Index: 43°   Visibility: 0.5mi
Dew Point: 43°   Wind: 5mph
Humidity: 100%   Direction: 230°SW
Pressure: 30"   Gusts: NA
Location:  51.76°N, 0.01°W
Report Text: EGSS 250320Z 23004KT 0800 R22/0450 FG NSC 06/06 Q1016
Loading
Personal Weather Stations






























Interactive Weather Map
Tropical Storm Tracking
New forecast layout! Learn more

10-Day Weather Forecast

Advertisements
Track Severe Weather on mobile